SKNV

Details ICAO SKNV (NVA)
Name BENITO SALAS
Region Colombia
Timezone America/Bogota (UTC-5.0)
Plans Departing 14
Arriving 8
Stats Elevation 1,464 ft / 446 m (AMSL)
Location 2.950152° -75.293999°
Runways 1
Magnetic Variation 6.295° W
Sunrise 2018-05-21 10:51:18 UTC / 2018-05-21 05:51:18 Local
Sunset 2018-05-21 23:07:07 UTC / 2018-05-21 18:07:07 Local
Advertisement - Login to hide

Runways

ID Width Length Bearing (true) Bearing (mag) Surface Threshold Offset Overrun Length
02 131 ft / 40 m 5,912 ft / 1,802 m 14.16° 20.46° Asphalt 395 ft / 120 m 0 ft / 0 m
20 131 ft / 40 m 5,912 ft / 1,802 m 194.16° 200.46° Asphalt 0 ft / 0 m 190 ft / 58 m

Map

Weather


0- 5 10 15 20 25 30 35+ Temperature / ° C

Clouds and Precipitation
Forecast for 2018-05-21 18:00 UTC. Updated 4 hours ago

Ground ~20,000 ft ~40,000 ft Winds

METAR

SKNV 212100Z 18005KT 110V220 9999 FEW030 BKN130 30/19 A2984

TAF

Not found

Frequencies

Tower 127.10 MHz NEIVA FIS
Tower 118.25 MHz TWR
Warning: Do not use this data for real-world aviation or navigation. No guarantee of current accuracy is given.